This is the latest recevied weather packets stored in our database for station/object KO6LQJ. If no packets are shown the sender has not sent any weather packets the latest 10 day(s).
| Time | Temp. | Humidity | Pressure | Rain* | Wind** | Luminosity | Snow |
|---|---|---|---|---|---|---|---|
| 1777488572 | 25.56° C | 32% | 1017.7 hPa | 0 mm | - | 795 W/m² | - |
| 1777488270 | 24.44° C | 32% | 1017.8 hPa | 0 mm | - | 758 W/m² | - |
| 1777487969 | 24.44° C | 33% | 1017.9 hPa | 0 mm | - | 73 W/m² | - |
| 1777487666 | 23.33° C | 34% | 1018 hPa | 0 mm | - | 131 W/m² | - |
| 1777487362 | 23.33° C | 34% | 1018.2 hPa | 0 mm | - | 790 W/m² | - |
| 1777487061 | 22.78° C | 34% | 1018.1 hPa | 0 mm | - | 830 W/m² | - |
| 1777486756 | 23.33° C | 34% | 1018.1 hPa | 0 mm | - | 838 W/m² | - |
| 1777486454 | 22.78° C | 34% | 1018.3 hPa | 0 mm | - | 851 W/m² | - |
| 1777486151 | 22.78° C | 35% | 1018.2 hPa | 0 mm | - | 871 W/m² | - |
| 1777485848 | 22.78° C | 35% | 1018.2 hPa | 0 mm | - | 889 W/m² | - |
| 1777485544 | 23.89° C | 33% | 1018.3 hPa | 0 mm | - | 903 W/m² | - |
| 1777485240 | 23.33° C | 34% | 1018.5 hPa | 0 mm | - | 900 W/m² | - |
| 1777484936 | 23.33° C | 34% | 1018.6 hPa | 0 mm | - | 906 W/m² | - |
| 1777484634 | 23.33° C | 33% | 1018.4 hPa | 0 mm | - | 891 W/m² | - |
| 1777484330 | 23.89° C | 33% | 1018.3 hPa | 0 mm | - | 888 W/m² | - |
| 1777484025 | 22.78° C | 32% | 1018.5 hPa | 0 mm | - | 839 W/m² | - |
| 1777483723 | 22.22° C | 34% | 1018.7 hPa | 0 mm | - | 826 W/m² | - |
| 1777483419 | 23.89° C | 32% | 1018.4 hPa | 0 mm | - | 843 W/m² | - |
| 1777483119 | 22.78° C | 34% | 1018.7 hPa | 0 mm | - | 841 W/m² | - |
| 1777482816 | 22.22° C | 34% | 1018.7 hPa | 0 mm | - | 828 W/m² | - |
| 1777482512 | 22.78° C | 34% | 1018.5 hPa | 0 mm | - | 796 W/m² | - |
| 1777482210 | 22.78° C | 36% | 1018.7 hPa | 0 mm | - | 108 W/m² | - |
| 1777481907 | 22.22° C | 37% | 1018.7 hPa | 0 mm | - | 711 W/m² | - |
| 1777481605 | 21.67° C | 36% | 1018.7 hPa | 0 mm | - | 684 W/m² | - |
| 1777481301 | 21.11° C | 37% | 1019.1 hPa | 0 mm | - | 631 W/m² | - |
* Rain latest hour (hover to see other rain measurements)
** Current wind speed in m/s (hover to see current wind gust speed)